createdAt,value
2018-11-27T00:00:46.548Z,5.50
2018-11-27T00:03:55.094Z,5.30
2018-11-27T00:07:05.266Z,5.40
2018-11-27T00:10:09.721Z,5.20
2018-11-27T00:13:13.013Z,5.20
2018-11-27T00:16:16.264Z,5.30
2018-11-27T00:19:19.588Z,5.00
2018-11-27T00:22:22.880Z,5.30
2018-11-27T00:25:26.193Z,5.60
2018-11-27T00:28:29.481Z,5.40
2018-11-27T00:31:32.762Z,5.10
2018-11-27T00:34:36.081Z,5.30
2018-11-27T00:37:39.401Z,4.70
2018-11-27T00:40:42.701Z,5.30
2018-11-27T00:43:45.973Z,5.40
2018-11-27T00:46:49.289Z,4.70
2018-11-27T00:49:52.816Z,5.20
2018-11-27T00:52:56.141Z,5.10
2018-11-27T00:55:59.541Z,5.10
2018-11-27T00:59:02.814Z,5.20
2018-11-27T01:02:06.388Z,4.60
2018-11-27T01:05:11.966Z,5.20
2018-11-27T01:08:15.305Z,4.80
2018-11-27T01:11:18.620Z,5.10
2018-11-27T01:14:21.917Z,4.90
2018-11-27T01:17:25.176Z,5.10
2018-11-27T01:20:28.894Z,5.10
2018-11-27T01:23:32.169Z,4.80
2018-11-27T01:26:35.458Z,4.40
2018-11-27T01:29:38.745Z,5.20
2018-11-27T01:32:42.104Z,4.60
2018-11-27T01:35:45.390Z,5.30
2018-11-27T01:38:48.692Z,5.10
2018-11-27T01:41:52.052Z,4.60
2018-11-27T01:44:55.337Z,4.30
2018-11-27T01:47:58.633Z,4.80
2018-11-27T01:51:01.981Z,4.80
2018-11-27T01:54:05.659Z,4.80
2018-11-27T01:57:08.950Z,4.80
2018-11-27T02:00:21.052Z,4.40
2018-11-27T02:03:39.264Z,4.70
2018-11-27T02:06:42.554Z,4.50
2018-11-27T02:09:45.830Z,4.10
2018-11-27T02:12:50.518Z,4.60
2018-11-27T02:15:53.810Z,4.40
2018-11-27T02:18:57.077Z,4.00
2018-11-27T02:22:00.398Z,4.60
2018-11-27T02:25:05.774Z,4.20
2018-11-27T02:28:09.093Z,4.40
2018-11-27T02:31:12.391Z,4.40
2018-11-27T02:34:15.650Z,3.90
2018-11-27T02:37:18.993Z,4.40
2018-11-27T02:40:22.358Z,4.40
2018-11-27T02:43:25.637Z,4.20
2018-11-27T02:46:28.920Z,4.20
2018-11-27T02:49:32.211Z,3.90
2018-11-27T02:52:35.545Z,4.30
2018-11-27T02:55:38.831Z,4.60
2018-11-27T02:58:42.156Z,4.10
2018-11-27T03:01:45.437Z,4.50
2018-11-27T03:04:48.721Z,3.90
2018-11-27T03:07:52.009Z,4.20
2018-11-27T03:10:55.274Z,4.10
2018-11-27T03:13:58.553Z,4.30
2018-11-27T03:17:01.921Z,4.10
2018-11-27T03:20:07.891Z,4.00
2018-11-27T03:23:11.201Z,3.70
2018-11-27T03:26:14.485Z,3.80
2018-11-27T03:29:17.769Z,3.80
2018-11-27T03:32:21.063Z,3.40
2018-11-27T03:35:25.213Z,3.40
2018-11-27T03:38:28.596Z,3.60
2018-11-27T03:41:31.929Z,3.20
2018-11-27T03:44:35.229Z,3.40
2018-11-27T03:47:38.637Z,3.90
2018-11-27T03:50:41.933Z,3.70
2018-11-27T03:53:46.023Z,3.60
2018-11-27T03:56:49.289Z,3.70
2018-11-27T03:59:52.585Z,3.90
2018-11-27T04:03:06.915Z,3.70
2018-11-27T04:06:10.194Z,3.10
2018-11-27T04:09:13.526Z,3.50
2018-11-27T04:12:16.835Z,3.20
2018-11-27T04:15:20.191Z,3.60
2018-11-27T04:18:23.470Z,3.70
2018-11-27T04:21:26.802Z,3.70
2018-11-27T04:24:30.109Z,3.80
2018-11-27T04:27:33.387Z,3.30
2018-11-27T04:30:36.693Z,3.80
2018-11-27T04:33:40.009Z,3.80
2018-11-27T04:36:43.294Z,3.50
2018-11-27T04:39:46.579Z,3.80
2018-11-27T04:42:49.862Z,3.70
2018-11-27T04:45:53.189Z,3.80
2018-11-27T04:48:56.490Z,3.60
2018-11-27T04:51:59.777Z,3.60
2018-11-27T04:55:03.235Z,3.10
2018-11-27T04:58:06.574Z,3.20
2018-11-27T05:01:09.902Z,3.80
2018-11-27T05:04:13.245Z,3.50
2018-11-27T05:07:16.542Z,3.70
2018-11-27T05:10:22.328Z,3.70
2018-11-27T05:13:25.572Z,3.20
2018-11-27T05:16:28.852Z,3.60
2018-11-27T05:19:32.109Z,3.70
2018-11-27T05:22:35.773Z,3.50
2018-11-27T05:25:39.091Z,3.50
2018-11-27T05:28:42.352Z,3.60
2018-11-27T05:31:45.646Z,3.90
2018-11-27T05:34:48.912Z,3.50
2018-11-27T05:37:52.225Z,4.20
2018-11-27T05:40:55.480Z,4.10
2018-11-27T05:43:58.780Z,4.00
2018-11-27T05:47:02.153Z,4.00
2018-11-27T05:50:08.629Z,4.40
2018-11-27T05:53:11.937Z,4.70
2018-11-27T05:56:15.236Z,4.60
2018-11-27T05:59:18.550Z,4.50
2018-11-27T06:02:21.833Z,4.00
2018-11-27T06:05:25.333Z,4.60
2018-11-27T06:08:28.612Z,4.10
2018-11-27T06:11:31.930Z,4.10
2018-11-27T06:14:35.237Z,4.50
2018-11-27T06:17:38.541Z,4.20
2018-11-27T06:20:41.861Z,4.70
2018-11-27T06:23:45.129Z,4.40
2018-11-27T06:26:48.469Z,4.10
2018-11-27T06:29:51.770Z,4.80
2018-11-27T06:32:55.077Z,4.10
2018-11-27T06:35:58.345Z,4.20
2018-11-27T06:39:01.621Z,4.90
2018-11-27T06:42:05.161Z,4.70
2018-11-27T06:45:11.414Z,4.20
2018-11-27T06:48:14.717Z,4.80
2018-11-27T06:51:18.033Z,4.70
2018-11-27T06:54:21.346Z,4.60
2018-11-27T06:57:24.693Z,4.90
2018-11-27T07:00:28.736Z,4.70
2018-11-27T07:03:32.080Z,5.00
2018-11-27T07:06:35.453Z,4.80
2018-11-27T07:09:38.737Z,4.80
2018-11-27T07:12:42.030Z,5.10
2018-11-27T07:15:45.572Z,4.30
2018-11-27T07:18:49.608Z,4.80
2018-11-27T07:21:52.206Z,4.90
2018-11-27T07:24:55.499Z,5.10
2018-11-27T07:27:58.868Z,4.30
2018-11-27T07:31:02.213Z,4.90
2018-11-27T07:34:05.816Z,4.90
2018-11-27T07:37:09.084Z,4.90
2018-11-27T07:40:18.124Z,4.70
2018-11-27T07:43:21.431Z,5.00
2018-11-27T07:46:24.727Z,4.90
2018-11-27T07:49:28.024Z,4.80
2018-11-27T07:52:31.320Z,5.10
2018-11-27T07:55:34.661Z,5.60
2018-11-27T07:58:38.090Z,5.40
2018-11-27T08:01:41.360Z,4.90
2018-11-27T08:04:44.705Z,5.20
2018-11-27T08:07:51.444Z,5.00
2018-11-27T08:10:54.875Z,4.80
2018-11-27T08:13:58.230Z,4.90
2018-11-27T08:17:01.532Z,5.00
2018-11-27T08:20:06.523Z,5.10
2018-11-27T08:23:11.006Z,4.80
2018-11-27T08:26:14.360Z,5.00
2018-11-27T08:29:17.725Z,4.70
2018-11-27T08:32:20.993Z,5.00
2018-11-27T08:35:27.210Z,4.70
2018-11-27T08:38:30.513Z,5.00
2018-11-27T08:41:40.357Z,5.40
2018-11-27T08:44:37.221Z,4.80
2018-11-27T08:47:40.616Z,5.00
2018-11-27T08:50:43.957Z,5.10
2018-11-27T08:53:47.260Z,5.10
2018-11-27T08:56:50.655Z,4.70
2018-11-27T08:59:54.681Z,5.00
2018-11-27T09:02:58.013Z,4.70
2018-11-27T09:06:01.341Z,5.30
2018-11-27T09:09:09.071Z,5.30
2018-11-27T09:12:12.412Z,5.10
2018-11-27T09:15:17.328Z,4.90
2018-11-27T09:18:24.800Z,5.50
2018-11-27T09:21:28.108Z,5.50
2018-11-27T09:24:31.464Z,5.30
2018-11-27T09:27:34.761Z,5.60
2018-11-27T09:30:38.161Z,5.60
2018-11-27T09:33:41.460Z,5.50
2018-11-27T09:36:44.790Z,5.50
2018-11-27T09:39:48.136Z,5.60
2018-11-27T09:42:51.521Z,5.50
2018-11-27T09:45:54.850Z,5.20
2018-11-27T09:48:58.132Z,5.30
2018-11-27T09:52:01.429Z,5.00
2018-11-27T09:55:08.509Z,5.80
2018-11-27T09:58:11.887Z,6.00
2018-11-27T10:01:15.204Z,5.30
2018-11-27T10:04:18.519Z,5.80
2018-11-27T10:07:21.827Z,5.30
2018-11-27T10:10:25.641Z,5.60
2018-11-27T10:13:28.977Z,5.50
2018-11-27T10:16:32.285Z,5.50
2018-11-27T10:19:35.589Z,5.80
2018-11-27T10:22:38.933Z,5.60
2018-11-27T10:25:42.256Z,5.40
2018-11-27T10:28:45.589Z,5.50
2018-11-27T10:31:48.941Z,5.70
2018-11-27T10:34:52.265Z,5.70
2018-11-27T10:37:55.603Z,5.40
2018-11-27T10:40:58.902Z,5.80
2018-11-27T10:44:02.249Z,5.90
2018-11-27T10:47:05.720Z,5.70
2018-11-27T10:50:11.577Z,5.50
2018-11-27T10:53:14.915Z,5.40
2018-11-27T10:56:18.192Z,5.80
2018-11-27T10:59:21.525Z,6.00
2018-11-27T11:02:31.239Z,5.70
2018-11-27T11:05:35.803Z,6.10
2018-11-27T11:08:39.129Z,5.50
2018-11-27T11:11:42.437Z,6.00
2018-11-27T11:14:45.769Z,6.00
2018-11-27T11:17:49.129Z,5.90
2018-11-27T11:20:52.443Z,6.20
2018-11-27T11:23:56.369Z,5.70
2018-11-27T11:26:59.701Z,6.10
2018-11-27T11:30:03.533Z,6.00
2018-11-27T11:33:08.346Z,6.10
2018-11-27T11:36:11.633Z,5.80
2018-11-27T11:39:14.984Z,6.20
2018-11-27T11:42:18.298Z,5.90
2018-11-27T11:45:21.632Z,6.00
2018-11-27T11:48:24.959Z,5.90
2018-11-27T11:51:28.277Z,5.60
2018-11-27T11:54:31.628Z,6.20
2018-11-27T11:57:34.942Z,6.10
2018-11-27T12:00:42.702Z,5.70
2018-11-27T12:03:46.044Z,5.50
2018-11-27T12:06:49.316Z,5.90
2018-11-27T12:09:52.660Z,6.00
2018-11-27T12:12:55.981Z,6.10
2018-11-27T12:15:59.289Z,5.50
2018-11-27T12:19:03.257Z,5.80
2018-11-27T12:22:06.696Z,6.00
2018-11-27T12:25:11.627Z,5.90
2018-11-27T12:28:15.200Z,6.00
2018-11-27T12:31:18.273Z,6.00
2018-11-27T12:34:21.613Z,5.50
2018-11-27T12:37:25.042Z,5.20
2018-11-27T12:40:28.844Z,5.60
2018-11-27T12:43:32.897Z,5.80
2018-11-27T12:46:36.217Z,5.50
2018-11-27T12:49:39.542Z,5.80
2018-11-27T12:52:42.943Z,6.20
2018-11-27T12:55:48.870Z,5.80
2018-11-27T12:58:52.169Z,5.50
2018-11-27T13:01:55.493Z,5.70
2018-11-27T13:04:58.817Z,5.50
2018-11-27T13:08:04.108Z,5.80
2018-11-27T13:11:11.540Z,5.80
2018-11-27T13:14:10.784Z,5.30
2018-11-27T13:17:14.120Z,5.50
2018-11-27T13:20:18.597Z,5.80
2018-11-27T13:23:21.933Z,5.80
2018-11-27T13:26:25.283Z,5.60
2018-11-27T13:29:28.596Z,5.70
2018-11-27T13:32:32.034Z,5.50
2018-11-27T13:35:36.117Z,6.00
2018-11-27T13:38:39.693Z,5.50
2018-11-27T13:41:43.113Z,5.40
2018-11-27T13:44:46.525Z,5.90
2018-11-27T13:47:49.847Z,5.50
2018-11-27T13:50:53.173Z,5.90
2018-11-27T13:53:56.505Z,5.40
2018-11-27T13:56:59.836Z,5.90
2018-11-27T14:00:03.597Z,5.40
2018-11-27T14:03:10.771Z,5.70
2018-11-27T14:06:10.774Z,6.00
2018-11-27T14:09:14.084Z,5.40
2018-11-27T14:12:17.413Z,5.70
2018-11-27T14:15:24.352Z,6.10
2018-11-27T14:18:27.215Z,6.10
2018-11-27T14:21:30.523Z,5.60
2018-11-27T14:24:33.868Z,5.90
2018-11-27T14:27:37.237Z,5.40
2018-11-27T14:30:40.706Z,6.00
2018-11-27T14:33:44.072Z,5.90
2018-11-27T14:36:47.774Z,5.50
2018-11-27T14:39:51.091Z,6.10
2018-11-27T14:42:54.493Z,5.40
2018-11-27T14:45:58.767Z,5.70
2018-11-27T14:49:02.870Z,5.60
2018-11-27T14:52:06.264Z,5.50
2018-11-27T14:55:11.779Z,6.10
2018-11-27T14:58:15.236Z,5.60
2018-11-27T15:01:18.435Z,6.00
2018-11-27T15:04:21.865Z,5.60
2018-11-27T15:07:25.846Z,5.80
2018-11-27T15:10:29.235Z,5.80
2018-11-27T15:13:35.543Z,5.70
2018-11-27T15:16:38.865Z,5.50
2018-11-27T15:19:42.248Z,5.50
2018-11-27T15:22:45.763Z,5.90
2018-11-27T15:25:49.180Z,6.40
2018-11-27T15:28:52.503Z,6.00
2018-11-27T15:31:55.868Z,5.60
2018-11-27T15:34:59.225Z,5.90
2018-11-27T15:38:02.597Z,5.80
2018-11-27T15:41:06.533Z,5.50
2018-11-27T15:44:09.919Z,5.50
2018-11-27T15:47:13.261Z,5.70
2018-11-27T15:50:16.593Z,5.80
2018-11-27T15:53:19.916Z,5.80
2018-11-27T15:56:23.268Z,5.20
2018-11-27T15:59:26.596Z,5.80
2018-11-27T16:02:29.897Z,5.80
2018-11-27T16:05:33.257Z,6.30
2018-11-27T16:08:36.624Z,6.50
2018-11-27T16:11:39.976Z,6.20
2018-11-27T16:14:43.272Z,6.20
2018-11-27T16:17:47.292Z,5.70
2018-11-27T16:20:50.616Z,5.80
2018-11-27T16:23:53.895Z,5.70
2018-11-27T16:26:57.225Z,5.80
2018-11-27T16:30:00.509Z,5.70
2018-11-27T16:33:03.944Z,5.60
2018-11-27T16:36:07.272Z,5.20
2018-11-27T16:39:12.067Z,5.10
2018-11-27T16:42:15.409Z,5.60
2018-11-27T16:45:20.213Z,5.10
2018-11-27T16:48:23.562Z,5.70
2018-11-27T16:51:26.897Z,5.60
2018-11-27T16:54:30.205Z,5.10
2018-11-27T16:57:33.566Z,5.80
2018-11-27T17:00:36.862Z,5.10
2018-11-27T17:03:40.192Z,5.50
2018-11-27T17:06:43.511Z,5.70
2018-11-27T17:09:52.842Z,5.20
2018-11-27T17:12:57.637Z,5.70
2018-11-27T17:16:00.934Z,5.50
2018-11-27T17:19:04.340Z,5.60
2018-11-27T17:22:07.814Z,5.20
2018-11-27T17:25:11.191Z,5.70
2018-11-27T17:28:18.968Z,5.60
2018-11-27T17:31:22.284Z,5.80
2018-11-27T17:34:25.569Z,5.00
2018-11-27T17:37:28.880Z,5.50
2018-11-27T17:40:32.470Z,5.00
2018-11-27T17:43:35.961Z,5.20
2018-11-27T17:46:39.277Z,5.10
2018-11-27T17:49:42.666Z,5.30
2018-11-27T17:52:46.017Z,5.60
2018-11-27T17:55:49.393Z,5.10
2018-11-27T17:58:52.713Z,5.30
2018-11-27T18:01:56.026Z,5.50
2018-11-27T18:04:59.377Z,5.30
2018-11-27T18:08:02.773Z,5.40
2018-11-27T18:11:06.218Z,5.30
2018-11-27T18:14:09.541Z,4.70
2018-11-27T18:17:12.885Z,4.70
2018-11-27T18:20:16.280Z,4.60
2018-11-27T18:23:19.585Z,4.90
2018-11-27T18:26:22.942Z,4.80
2018-11-27T18:29:26.289Z,4.70
2018-11-27T18:32:29.626Z,4.60
2018-11-27T18:35:32.979Z,4.30
2018-11-27T18:38:36.284Z,4.10
2018-11-27T18:41:39.649Z,3.80
2018-11-27T18:44:42.944Z,4.10
2018-11-27T18:47:46.493Z,3.90
2018-11-27T18:50:49.879Z,3.80
2018-11-27T18:53:55.070Z,3.60
2018-11-27T18:56:56.541Z,4.10
2018-11-27T18:59:59.833Z,4.10
2018-11-27T19:03:03.249Z,4.00
2018-11-27T19:06:09.574Z,3.80
2018-11-27T19:09:12.980Z,3.70
2018-11-27T19:12:16.705Z,3.20
2018-11-27T19:15:27.341Z,3.20
2018-11-27T19:18:30.677Z,3.20
2018-11-27T19:21:33.984Z,3.30
2018-11-27T19:24:37.327Z,3.10
2018-11-27T19:27:40.890Z,3.30
2018-11-27T19:30:44.521Z,3.20
2018-11-27T19:33:47.821Z,3.50
2018-11-27T19:36:51.117Z,3.70
2018-11-27T19:39:54.433Z,3.20
2018-11-27T19:42:57.776Z,3.40
2018-11-27T19:46:01.117Z,3.70
2018-11-27T19:49:04.624Z,3.80
2018-11-27T19:52:07.969Z,3.70
2018-11-27T19:55:14.933Z,3.80
2018-11-27T19:58:18.260Z,3.70
2018-11-27T20:01:21.682Z,3.70
2018-11-27T20:04:25.028Z,3.30
2018-11-27T20:07:28.334Z,3.80
2018-11-27T20:10:31.676Z,3.60
2018-11-27T20:13:35.038Z,3.90
2018-11-27T20:16:38.428Z,3.90
2018-11-27T20:19:41.712Z,3.70
2018-11-27T20:22:45.103Z,3.80
2018-11-27T20:25:48.433Z,3.90
2018-11-27T20:28:51.745Z,3.90
2018-11-27T20:31:55.065Z,3.90
2018-11-27T20:34:58.413Z,3.50
2018-11-27T20:38:05.513Z,3.50
2018-11-27T20:41:08.825Z,3.90
2018-11-27T20:44:12.129Z,4.10
2018-11-27T20:47:15.449Z,3.80
2018-11-27T20:50:20.493Z,3.70
2018-11-27T20:53:23.842Z,3.90
2018-11-27T20:56:27.289Z,3.80
2018-11-27T20:59:30.655Z,4.20
2018-11-27T21:02:33.972Z,3.90
2018-11-27T21:05:37.373Z,3.60
2018-11-27T21:08:40.798Z,3.50
2018-11-27T21:11:44.137Z,3.90
2018-11-27T21:14:47.467Z,4.20
2018-11-27T21:17:50.775Z,4.20
2018-11-27T21:20:54.093Z,4.20
2018-11-27T21:23:57.402Z,4.10
2018-11-27T21:27:00.697Z,4.10
2018-11-27T21:30:08.660Z,3.90
2018-11-27T21:33:12.020Z,4.00
2018-11-27T21:36:15.540Z,3.60
2018-11-27T21:39:18.966Z,3.60
2018-11-27T21:42:22.282Z,3.90
2018-11-27T21:45:27.005Z,4.20
2018-11-27T21:48:30.312Z,4.20
2018-11-27T21:51:33.624Z,3.80
2018-11-27T21:54:36.932Z,3.60
2018-11-27T21:57:40.317Z,3.70
2018-11-27T22:00:43.645Z,3.80
2018-11-27T22:03:47.025Z,3.50
2018-11-27T22:06:50.365Z,3.60
2018-11-27T22:09:53.766Z,3.30
2018-11-27T22:12:58.073Z,3.70
2018-11-27T22:16:01.400Z,4.00
2018-11-27T22:19:04.817Z,3.50
2018-11-27T22:22:08.092Z,3.90
2018-11-27T22:25:11.966Z,4.00
2018-11-27T22:28:15.261Z,4.10
2018-11-27T22:31:18.525Z,3.90
2018-11-27T22:34:21.817Z,4.00
2018-11-27T22:37:25.150Z,3.80
2018-11-27T22:40:28.436Z,4.20
2018-11-27T22:43:31.747Z,3.90
2018-11-27T22:46:35.086Z,3.40
2018-11-27T22:49:38.399Z,4.10
2018-11-27T22:52:41.772Z,4.10
2018-11-27T22:55:45.045Z,4.10
2018-11-27T22:58:48.328Z,4.00
2018-11-27T23:01:51.612Z,4.10
2018-11-27T23:04:54.929Z,3.50
2018-11-27T23:07:58.336Z,3.80
2018-11-27T23:11:01.596Z,4.20
2018-11-27T23:14:05.139Z,3.80
2018-11-27T23:17:08.437Z,3.50
2018-11-27T23:20:14.547Z,3.80
2018-11-27T23:23:17.869Z,4.00
2018-11-27T23:26:21.153Z,3.50
2018-11-27T23:29:24.466Z,3.40
2018-11-27T23:32:27.749Z,3.80
2018-11-27T23:35:31.069Z,3.30
2018-11-27T23:38:34.344Z,3.10
2018-11-27T23:41:37.628Z,4.00
2018-11-27T23:44:40.922Z,3.70
2018-11-27T23:47:44.329Z,3.80
2018-11-27T23:50:47.610Z,3.60
2018-11-27T23:53:50.898Z,3.90
2018-11-27T23:56:54.166Z,3.90
2018-11-27T23:59:57.490Z,3.70
